sensor_id;sensor_type;location;lat;lon;timestamp;P1;durP1;ratioP1;P2;durP2;ratioP2
46721;SDS011;32455;43.430;23.136;2023-07-13T00:02:22;8.38;;;3.65;;
46721;SDS011;32455;43.430;23.136;2023-07-13T00:05:07;7.55;;;3.58;;
46721;SDS011;32455;43.430;23.136;2023-07-13T00:07:53;7.65;;;3.50;;
46721;SDS011;32455;43.430;23.136;2023-07-13T00:10:40;5.55;;;3.45;;
46721;SDS011;32455;43.430;23.136;2023-07-13T00:13:26;9.43;;;3.72;;
46721;SDS011;32455;43.430;23.136;2023-07-13T00:16:12;10.43;;;3.80;;
46721;SDS011;32455;43.430;23.136;2023-07-13T00:18:58;3.47;;;3.13;;
46721;SDS011;32455;43.430;23.136;2023-07-13T00:21:44;7.15;;;3.30;;
46721;SDS011;32455;43.430;23.136;2023-07-13T00:24:30;8.23;;;3.47;;
46721;SDS011;32455;43.430;23.136;2023-07-13T00:27:15;7.40;;;3.50;;
46721;SDS011;32455;43.430;23.136;2023-07-13T00:30:02;4.68;;;3.22;;
46721;SDS011;32455;43.430;23.136;2023-07-13T00:32:48;5.85;;;3.35;;
46721;SDS011;32455;43.430;23.136;2023-07-13T00:35:33;9.48;;;3.50;;
46721;SDS011;32455;43.430;23.136;2023-07-13T00:38:19;7.35;;;3.47;;
46721;SDS011;32455;43.430;23.136;2023-07-13T00:41:05;4.63;;;3.30;;
46721;SDS011;32455;43.430;23.136;2023-07-13T00:43:50;8.73;;;3.10;;
46721;SDS011;32455;43.430;23.136;2023-07-13T00:46:36;6.18;;;3.22;;
46721;SDS011;32455;43.430;23.136;2023-07-13T00:49:22;6.03;;;3.50;;
46721;SDS011;32455;43.430;23.136;2023-07-13T00:52:09;5.75;;;3.38;;
46721;SDS011;32455;43.430;23.136;2023-07-13T00:54:54;4.65;;;3.30;;
46721;SDS011;32455;43.430;23.136;2023-07-13T00:57:41;8.52;;;3.25;;
46721;SDS011;32455;43.430;23.136;2023-07-13T01:00:28;6.55;;;3.63;;
46721;SDS011;32455;43.430;23.136;2023-07-13T01:03:14;7.15;;;3.60;;
46721;SDS011;32455;43.430;23.136;2023-07-13T01:06:00;7.90;;;3.13;;
46721;SDS011;32455;43.430;23.136;2023-07-13T01:08:46;7.70;;;3.35;;
46721;SDS011;32455;43.430;23.136;2023-07-13T01:11:32;9.30;;;3.67;;
46721;SDS011;32455;43.430;23.136;2023-07-13T01:14:17;7.30;;;3.20;;
46721;SDS011;32455;43.430;23.136;2023-07-13T01:17:03;5.97;;;3.65;;
46721;SDS011;32455;43.430;23.136;2023-07-13T01:19:49;7.97;;;3.55;;
46721;SDS011;32455;43.430;23.136;2023-07-13T01:22:34;8.02;;;4.20;;
46721;SDS011;32455;43.430;23.136;2023-07-13T01:25:19;11.73;;;2.88;;
46721;SDS011;32455;43.430;23.136;2023-07-13T01:28:06;9.63;;;3.90;;
46721;SDS011;32455;43.430;23.136;2023-07-13T01:30:53;4.18;;;3.33;;
46721;SDS011;32455;43.430;23.136;2023-07-13T01:33:39;9.15;;;3.80;;
46721;SDS011;32455;43.430;23.136;2023-07-13T01:36:25;8.30;;;3.33;;
46721;SDS011;32455;43.430;23.136;2023-07-13T01:39:10;5.20;;;3.50;;
46721;SDS011;32455;43.430;23.136;2023-07-13T01:41:55;5.82;;;3.65;;
46721;SDS011;32455;43.430;23.136;2023-07-13T01:44:41;5.35;;;3.50;;
46721;SDS011;32455;43.430;23.136;2023-07-13T01:47:27;5.60;;;3.15;;
46721;SDS011;32455;43.430;23.136;2023-07-13T01:50:13;9.27;;;3.47;;
46721;SDS011;32455;43.430;23.136;2023-07-13T01:52:58;6.75;;;3.28;;
46721;SDS011;32455;43.430;23.136;2023-07-13T01:55:43;7.50;;;3.30;;
46721;SDS011;32455;43.430;23.136;2023-07-13T01:58:29;5.45;;;3.40;;
46721;SDS011;32455;43.430;23.136;2023-07-13T02:01:14;8.48;;;3.67;;
46721;SDS011;32455;43.430;23.136;2023-07-13T02:03:59;5.38;;;3.85;;
46721;SDS011;32455;43.430;23.136;2023-07-13T02:06:45;5.43;;;3.22;;
46721;SDS011;32455;43.430;23.136;2023-07-13T02:09:30;8.10;;;3.50;;
46721;SDS011;32455;43.430;23.136;2023-07-13T02:12:16;7.65;;;3.70;;
46721;SDS011;32455;43.430;23.136;2023-07-13T02:15:01;7.22;;;3.72;;
46721;SDS011;32455;43.430;23.136;2023-07-13T02:17:47;11.57;;;3.38;;
46721;SDS011;32455;43.430;23.136;2023-07-13T02:20:33;4.50;;;3.20;;
46721;SDS011;32455;43.430;23.136;2023-07-13T02:23:18;4.70;;;3.08;;
46721;SDS011;32455;43.430;23.136;2023-07-13T02:26:04;10.60;;;3.80;;
46721;SDS011;32455;43.430;23.136;2023-07-13T02:28:49;8.05;;;3.40;;
46721;SDS011;32455;43.430;23.136;2023-07-13T02:31:34;6.70;;;3.50;;
46721;SDS011;32455;43.430;23.136;2023-07-13T02:34:20;6.15;;;3.88;;
46721;SDS011;32455;43.430;23.136;2023-07-13T02:37:06;6.63;;;3.60;;
46721;SDS011;32455;43.430;23.136;2023-07-13T02:39:51;5.38;;;3.40;;
46721;SDS011;32455;43.430;23.136;2023-07-13T02:42:37;6.60;;;3.30;;
46721;SDS011;32455;43.430;23.136;2023-07-13T02:45:22;8.50;;;3.58;;
46721;SDS011;32455;43.430;23.136;2023-07-13T02:48:08;6.60;;;3.58;;
46721;SDS011;32455;43.430;23.136;2023-07-13T02:50:54;8.73;;;3.92;;
46721;SDS011;32455;43.430;23.136;2023-07-13T02:53:39;11.30;;;3.92;;
46721;SDS011;32455;43.430;23.136;2023-07-13T02:56:26;4.93;;;3.63;;
46721;SDS011;32455;43.430;23.136;2023-07-13T02:59:12;6.80;;;3.70;;
46721;SDS011;32455;43.430;23.136;2023-07-13T03:01:57;10.63;;;4.03;;
46721;SDS011;32455;43.430;23.136;2023-07-13T03:04:43;9.20;;;3.40;;
46721;SDS011;32455;43.430;23.136;2023-07-13T03:07:29;6.53;;;3.95;;
46721;SDS011;32455;43.430;23.136;2023-07-13T03:10:15;9.55;;;3.70;;
46721;SDS011;32455;43.430;23.136;2023-07-13T03:13:01;5.22;;;3.60;;
46721;SDS011;32455;43.430;23.136;2023-07-13T03:15:48;13.85;;;4.57;;
46721;SDS011;32455;43.430;23.136;2023-07-13T03:18:33;6.65;;;3.55;;
46721;SDS011;32455;43.430;23.136;2023-07-13T03:21:19;8.68;;;3.80;;
46721;SDS011;32455;43.430;23.136;2023-07-13T03:24:05;7.50;;;4.38;;
46721;SDS011;32455;43.430;23.136;2023-07-13T03:26:51;8.90;;;3.95;;
46721;SDS011;32455;43.430;23.136;2023-07-13T03:29:36;12.13;;;3.80;;
46721;SDS011;32455;43.430;23.136;2023-07-13T03:32:22;7.43;;;4.00;;
46721;SDS011;32455;43.430;23.136;2023-07-13T03:35:07;10.85;;;3.67;;
46721;SDS011;32455;43.430;23.136;2023-07-13T03:37:53;8.40;;;3.83;;
46721;SDS011;32455;43.430;23.136;2023-07-13T03:40:39;10.45;;;3.65;;
46721;SDS011;32455;43.430;23.136;2023-07-13T03:43:24;9.43;;;3.90;;
46721;SDS011;32455;43.430;23.136;2023-07-13T03:46:10;7.90;;;3.85;;
46721;SDS011;32455;43.430;23.136;2023-07-13T03:48:56;12.05;;;3.75;;
46721;SDS011;32455;43.430;23.136;2023-07-13T03:51:42;12.02;;;3.58;;
46721;SDS011;32455;43.430;23.136;2023-07-13T03:54:27;6.78;;;3.35;;
46721;SDS011;32455;43.430;23.136;2023-07-13T03:57:12;14.73;;;3.88;;
46721;SDS011;32455;43.430;23.136;2023-07-13T03:59:57;6.75;;;3.45;;
46721;SDS011;32455;43.430;23.136;2023-07-13T04:02:43;6.15;;;3.83;;
46721;SDS011;32455;43.430;23.136;2023-07-13T04:05:28;10.70;;;4.10;;
46721;SDS011;32455;43.430;23.136;2023-07-13T04:08:13;6.03;;;3.55;;
46721;SDS011;32455;43.430;23.136;2023-07-13T04:10:59;7.60;;;3.63;;
46721;SDS011;32455;43.430;23.136;2023-07-13T04:13:46;10.05;;;3.78;;
46721;SDS011;32455;43.430;23.136;2023-07-13T04:16:31;8.75;;;4.03;;
46721;SDS011;32455;43.430;23.136;2023-07-13T04:19:16;8.52;;;3.35;;
46721;SDS011;32455;43.430;23.136;2023-07-13T04:22:02;8.70;;;3.55;;
46721;SDS011;32455;43.430;23.136;2023-07-13T04:24:47;7.40;;;3.72;;
46721;SDS011;32455;43.430;23.136;2023-07-13T04:27:33;7.50;;;4.25;;
46721;SDS011;32455;43.430;23.136;2023-07-13T04:30:18;7.78;;;3.38;;
46721;SDS011;32455;43.430;23.136;2023-07-13T04:33:04;17.10;;;4.75;;
46721;SDS011;32455;43.430;23.136;2023-07-13T04:35:50;7.43;;;4.07;;
46721;SDS011;32455;43.430;23.136;2023-07-13T04:38:41;7.93;;;3.73;;
46721;SDS011;32455;43.430;23.136;2023-07-13T04:41:26;12.60;;;4.57;;
46721;SDS011;32455;43.430;23.136;2023-07-13T04:44:12;8.25;;;3.53;;
46721;SDS011;32455;43.430;23.136;2023-07-13T04:46:57;9.52;;;3.70;;
46721;SDS011;32455;43.430;23.136;2023-07-13T04:49:43;8.32;;;3.97;;
46721;SDS011;32455;43.430;23.136;2023-07-13T04:52:29;9.13;;;3.60;;
46721;SDS011;32455;43.430;23.136;2023-07-13T04:55:15;4.30;;;3.50;;
46721;SDS011;32455;43.430;23.136;2023-07-13T04:57:59;6.85;;;3.85;;
46721;SDS011;32455;43.430;23.136;2023-07-13T05:00:44;9.40;;;3.83;;
46721;SDS011;32455;43.430;23.136;2023-07-13T05:03:30;6.97;;;3.67;;
46721;SDS011;32455;43.430;23.136;2023-07-13T05:06:15;5.20;;;3.50;;
46721;SDS011;32455;43.430;23.136;2023-07-13T05:09:01;6.90;;;3.67;;
46721;SDS011;32455;43.430;23.136;2023-07-13T05:11:46;5.47;;;3.45;;
46721;SDS011;32455;43.430;23.136;2023-07-13T05:14:32;6.70;;;4.00;;
46721;SDS011;32455;43.430;23.136;2023-07-13T05:17:17;6.70;;;3.90;;
46721;SDS011;32455;43.430;23.136;2023-07-13T05:20:02;6.35;;;3.85;;
46721;SDS011;32455;43.430;23.136;2023-07-13T05:22:48;10.27;;;3.80;;
46721;SDS011;32455;43.430;23.136;2023-07-13T05:25:33;5.47;;;3.55;;
46721;SDS011;32455;43.430;23.136;2023-07-13T05:28:19;10.60;;;4.00;;
46721;SDS011;32455;43.430;23.136;2023-07-13T05:31:06;4.70;;;3.65;;
46721;SDS011;32455;43.430;23.136;2023-07-13T05:33:53;5.35;;;4.03;;
46721;SDS011;32455;43.430;23.136;2023-07-13T05:36:39;6.45;;;3.47;;
46721;SDS011;32455;43.430;23.136;2023-07-13T05:39:25;4.93;;;3.53;;
46721;SDS011;32455;43.430;23.136;2023-07-13T05:42:12;8.25;;;3.65;;
46721;SDS011;32455;43.430;23.136;2023-07-13T05:44:57;6.03;;;3.90;;
46721;SDS011;32455;43.430;23.136;2023-07-13T05:47:42;5.40;;;3.90;;
46721;SDS011;32455;43.430;23.136;2023-07-13T05:50:28;6.95;;;3.55;;
46721;SDS011;32455;43.430;23.136;2023-07-13T05:53:14;10.35;;;3.72;;
46721;SDS011;32455;43.430;23.136;2023-07-13T05:55:59;7.78;;;4.25;;
46721;SDS011;32455;43.430;23.136;2023-07-13T05:58:45;6.63;;;3.92;;
46721;SDS011;32455;43.430;23.136;2023-07-13T06:01:30;5.57;;;4.05;;
46721;SDS011;32455;43.430;23.136;2023-07-13T06:04:15;6.93;;;3.53;;
46721;SDS011;32455;43.430;23.136;2023-07-13T06:07:01;6.35;;;3.65;;
46721;SDS011;32455;43.430;23.136;2023-07-13T06:09:46;9.20;;;3.63;;
46721;SDS011;32455;43.430;23.136;2023-07-13T06:12:31;5.55;;;3.95;;
46721;SDS011;32455;43.430;23.136;2023-07-13T06:15:16;8.18;;;4.25;;
46721;SDS011;32455;43.430;23.136;2023-07-13T06:18:01;8.43;;;3.70;;
46721;SDS011;32455;43.430;23.136;2023-07-13T06:20:47;8.75;;;3.83;;
46721;SDS011;32455;43.430;23.136;2023-07-13T06:23:32;6.85;;;3.58;;
46721;SDS011;32455;43.430;23.136;2023-07-13T06:26:18;8.25;;;4.50;;
46721;SDS011;32455;43.430;23.136;2023-07-13T06:29:05;4.78;;;3.65;;
46721;SDS011;32455;43.430;23.136;2023-07-13T06:31:50;8.73;;;3.55;;
46721;SDS011;32455;43.430;23.136;2023-07-13T06:34:36;7.22;;;3.50;;
46721;SDS011;32455;43.430;23.136;2023-07-13T06:37:21;7.15;;;3.88;;
46721;SDS011;32455;43.430;23.136;2023-07-13T06:40:07;13.43;;;4.10;;
46721;SDS011;32455;43.430;23.136;2023-07-13T06:42:52;6.55;;;3.80;;
46721;SDS011;32455;43.430;23.136;2023-07-13T06:45:40;6.10;;;3.55;;
46721;SDS011;32455;43.430;23.136;2023-07-13T06:48:27;9.00;;;4.07;;
46721;SDS011;32455;43.430;23.136;2023-07-13T06:51:12;7.80;;;4.25;;
46721;SDS011;32455;43.430;23.136;2023-07-13T06:53:58;6.45;;;4.13;;
46721;SDS011;32455;43.430;23.136;2023-07-13T06:56:43;6.25;;;3.92;;
46721;SDS011;32455;43.430;23.136;2023-07-13T06:59:29;6.05;;;3.65;;
46721;SDS011;32455;43.430;23.136;2023-07-13T07:02:14;10.80;;;4.07;;
46721;SDS011;32455;43.430;23.136;2023-07-13T07:04:59;5.63;;;3.63;;
46721;SDS011;32455;43.430;23.136;2023-07-13T07:07:44;7.53;;;4.20;;
46721;SDS011;32455;43.430;23.136;2023-07-13T07:10:30;6.28;;;3.97;;
46721;SDS011;32455;43.430;23.136;2023-07-13T07:13:16;5.60;;;3.60;;
46721;SDS011;32455;43.430;23.136;2023-07-13T07:16:01;6.55;;;3.90;;
46721;SDS011;32455;43.430;23.136;2023-07-13T07:18:46;8.25;;;4.32;;
46721;SDS011;32455;43.430;23.136;2023-07-13T07:21:33;5.88;;;3.78;;
46721;SDS011;32455;43.430;23.136;2023-07-13T07:24:18;6.60;;;4.20;;
46721;SDS011;32455;43.430;23.136;2023-07-13T07:27:04;9.30;;;4.63;;
46721;SDS011;32455;43.430;23.136;2023-07-13T07:29:49;6.90;;;4.55;;
46721;SDS011;32455;43.430;23.136;2023-07-13T07:32:35;10.18;;;4.32;;
46721;SDS011;32455;43.430;23.136;2023-07-13T07:35:20;5.97;;;3.90;;
46721;SDS011;32455;43.430;23.136;2023-07-13T07:38:06;7.50;;;4.13;;
46721;SDS011;32455;43.430;23.136;2023-07-13T07:40:53;7.88;;;4.05;;
46721;SDS011;32455;43.430;23.136;2023-07-13T07:43:38;12.60;;;4.00;;
46721;SDS011;32455;43.430;23.136;2023-07-13T07:46:24;8.10;;;3.75;;
46721;SDS011;32455;43.430;23.136;2023-07-13T07:49:09;5.75;;;3.15;;
46721;SDS011;32455;43.430;23.136;2023-07-13T07:51:55;7.80;;;3.47;;
46721;SDS011;32455;43.430;23.136;2023-07-13T07:54:40;10.57;;;4.43;;
46721;SDS011;32455;43.430;23.136;2023-07-13T07:57:25;8.98;;;3.78;;
46721;SDS011;32455;43.430;23.136;2023-07-13T08:00:10;6.93;;;4.00;;
46721;SDS011;32455;43.430;23.136;2023-07-13T08:02:56;5.85;;;3.78;;
46721;SDS011;32455;43.430;23.136;2023-07-13T08:05:41;8.85;;;3.75;;
46721;SDS011;32455;43.430;23.136;2023-07-13T08:08:26;5.35;;;3.78;;
46721;SDS011;32455;43.430;23.136;2023-07-13T08:11:12;4.80;;;3.58;;
46721;SDS011;32455;43.430;23.136;2023-07-13T08:13:57;6.10;;;3.45;;
46721;SDS011;32455;43.430;23.136;2023-07-13T08:16:43;8.73;;;4.32;;
46721;SDS011;32455;43.430;23.136;2023-07-13T08:19:28;5.78;;;3.60;;
46721;SDS011;32455;43.430;23.136;2023-07-13T08:22:14;7.45;;;3.65;;
46721;SDS011;32455;43.430;23.136;2023-07-13T08:24:59;9.07;;;4.32;;
46721;SDS011;32455;43.430;23.136;2023-07-13T08:27:45;7.63;;;3.63;;
46721;SDS011;32455;43.430;23.136;2023-07-13T08:30:30;5.18;;;3.33;;
46721;SDS011;32455;43.430;23.136;2023-07-13T08:33:16;5.25;;;3.78;;
46721;SDS011;32455;43.430;23.136;2023-07-13T08:36:02;6.82;;;3.70;;
46721;SDS011;32455;43.430;23.136;2023-07-13T08:38:49;8.48;;;3.97;;
46721;SDS011;32455;43.430;23.136;2023-07-13T08:41:35;10.18;;;4.07;;
46721;SDS011;32455;43.430;23.136;2023-07-13T08:44:25;6.97;;;3.58;;
46721;SDS011;32455;43.430;23.136;2023-07-13T08:47:22;6.00;;;4.00;;
46721;SDS011;32455;43.430;23.136;2023-07-13T08:50:11;7.50;;;3.58;;
46721;SDS011;32455;43.430;23.136;2023-07-13T08:52:58;8.30;;;3.58;;
46721;SDS011;32455;43.430;23.136;2023-07-13T08:55:46;8.02;;;3.85;;
46721;SDS011;32455;43.430;23.136;2023-07-13T08:58:31;9.48;;;3.80;;
46721;SDS011;32455;43.430;23.136;2023-07-13T09:01:32;8.25;;;3.90;;
46721;SDS011;32455;43.430;23.136;2023-07-13T09:04:32;6.50;;;3.35;;
46721;SDS011;32455;43.430;23.136;2023-07-13T09:07:29;9.68;;;3.70;;
46721;SDS011;32455;43.430;23.136;2023-07-13T09:10:49;5.43;;;3.40;;
46721;SDS011;32455;43.430;23.136;2023-07-13T09:13:46;7.00;;;3.63;;
46721;SDS011;32455;43.430;23.136;2023-07-13T09:16:46;6.47;;;3.70;;
46721;SDS011;32455;43.430;23.136;2023-07-13T09:19:33;10.15;;;3.55;;
46721;SDS011;32455;43.430;23.136;2023-07-13T09:22:20;7.72;;;3.67;;
46721;SDS011;32455;43.430;23.136;2023-07-13T09:25:21;9.95;;;4.30;;
46721;SDS011;32455;43.430;23.136;2023-07-13T09:28:15;5.85;;;3.65;;
46721;SDS011;32455;43.430;23.136;2023-07-13T09:34:19;7.38;;;4.05;;
46721;SDS011;32455;43.430;23.136;2023-07-13T09:37:04;8.77;;;4.35;;
46721;SDS011;32455;43.430;23.136;2023-07-13T09:39:50;7.72;;;3.90;;
46721;SDS011;32455;43.430;23.136;2023-07-13T09:42:37;8.95;;;3.92;;
46721;SDS011;32455;43.430;23.136;2023-07-13T09:45:29;6.32;;;4.00;;
46721;SDS011;32455;43.430;23.136;2023-07-13T09:48:17;4.97;;;4.00;;
46721;SDS011;32455;43.430;23.136;2023-07-13T09:51:06;7.10;;;3.90;;
46721;SDS011;32455;43.430;23.136;2023-07-13T09:53:59;5.10;;;3.70;;
46721;SDS011;32455;43.430;23.136;2023-07-13T09:56:47;8.70;;;4.03;;
46721;SDS011;32455;43.430;23.136;2023-07-13T09:59:34;7.40;;;3.90;;
46721;SDS011;32455;43.430;23.136;2023-07-13T10:05:15;8.43;;;3.80;;
46721;SDS011;32455;43.430;23.136;2023-07-13T10:08:01;6.88;;;3.53;;
46721;SDS011;32455;43.430;23.136;2023-07-13T10:10:52;8.93;;;4.60;;
46721;SDS011;32455;43.430;23.136;2023-07-13T10:13:44;7.90;;;4.47;;
46721;SDS011;32455;43.430;23.136;2023-07-13T10:16:37;7.43;;;4.15;;
46721;SDS011;32455;43.430;23.136;2023-07-13T10:19:25;7.18;;;3.95;;
46721;SDS011;32455;43.430;23.136;2023-07-13T10:25:37;8.25;;;4.15;;
46721;SDS011;32455;43.430;23.136;2023-07-13T10:28:27;7.18;;;4.20;;
46721;SDS011;32455;43.430;23.136;2023-07-13T10:31:16;5.03;;;3.55;;
46721;SDS011;32455;43.430;23.136;2023-07-13T10:34:02;8.63;;;3.75;;
46721;SDS011;32455;43.430;23.136;2023-07-13T10:36:51;12.00;;;3.90;;
46721;SDS011;32455;43.430;23.136;2023-07-13T10:39:36;13.15;;;4.50;;
46721;SDS011;32455;43.430;23.136;2023-07-13T10:42:36;9.02;;;3.70;;
46721;SDS011;32455;43.430;23.136;2023-07-13T10:45:29;6.72;;;3.67;;
46721;SDS011;32455;43.430;23.136;2023-07-13T10:48:19;6.18;;;3.45;;
46721;SDS011;32455;43.430;23.136;2023-07-13T10:51:08;9.48;;;3.88;;
46721;SDS011;32455;43.430;23.136;2023-07-13T11:00:16;6.88;;;3.20;;
46721;SDS011;32455;43.430;23.136;2023-07-13T11:03:03;6.38;;;4.03;;
46721;SDS011;32455;43.430;23.136;2023-07-13T11:05:50;6.30;;;3.70;;
46721;SDS011;32455;43.430;23.136;2023-07-13T11:08:54;5.50;;;3.53;;
46721;SDS011;32455;43.430;23.136;2023-07-13T11:11:41;6.95;;;4.00;;
46721;SDS011;32455;43.430;23.136;2023-07-13T11:14:34;10.20;;;4.20;;
46721;SDS011;32455;43.430;23.136;2023-07-13T11:23:17;7.25;;;3.80;;
46721;SDS011;32455;43.430;23.136;2023-07-13T11:26:36;9.57;;;3.70;;
46721;SDS011;32455;43.430;23.136;2023-07-13T11:32:21;9.02;;;3.67;;
46721;SDS011;32455;43.430;23.136;2023-07-13T11:35:15;7.10;;;4.03;;
46721;SDS011;32455;43.430;23.136;2023-07-13T11:38:19;6.03;;;3.85;;
46721;SDS011;32455;43.430;23.136;2023-07-13T11:41:18;8.18;;;4.38;;
46721;SDS011;32455;43.430;23.136;2023-07-13T11:44:12;6.38;;;3.53;;
46721;SDS011;32455;43.430;23.136;2023-07-13T11:47:08;8.23;;;4.07;;
46721;SDS011;32455;43.430;23.136;2023-07-13T11:49:59;6.63;;;3.47;;
46721;SDS011;32455;43.430;23.136;2023-07-13T11:52:44;8.55;;;3.63;;
46721;SDS011;32455;43.430;23.136;2023-07-13T11:55:30;13.63;;;4.05;;
46721;SDS011;32455;43.430;23.136;2023-07-13T11:58:17;8.07;;;3.90;;
46721;SDS011;32455;43.430;23.136;2023-07-13T12:01:27;7.30;;;3.63;;
46721;SDS011;32455;43.430;23.136;2023-07-13T12:04:24;10.13;;;3.92;;
46721;SDS011;32455;43.430;23.136;2023-07-13T12:07:16;7.68;;;3.85;;
46721;SDS011;32455;43.430;23.136;2023-07-13T12:12:57;8.73;;;3.90;;
46721;SDS011;32455;43.430;23.136;2023-07-13T12:18:33;15.45;;;4.38;;
46721;SDS011;32455;43.430;23.136;2023-07-13T12:21:19;8.15;;;4.13;;
46721;SDS011;32455;43.430;23.136;2023-07-13T12:24:15;8.30;;;4.32;;
46721;SDS011;32455;43.430;23.136;2023-07-13T12:27:04;11.80;;;4.18;;
46721;SDS011;32455;43.430;23.136;2023-07-13T12:29:51;7.85;;;4.00;;
46721;SDS011;32455;43.430;23.136;2023-07-13T12:32:59;8.73;;;4.20;;
46721;SDS011;32455;43.430;23.136;2023-07-13T12:35:47;12.52;;;4.50;;
46721;SDS011;32455;43.430;23.136;2023-07-13T12:38:34;8.20;;;3.90;;
46721;SDS011;32455;43.430;23.136;2023-07-13T12:41:19;8.02;;;4.22;;
46721;SDS011;32455;43.430;23.136;2023-07-13T12:44:09;6.15;;;4.22;;
46721;SDS011;32455;43.430;23.136;2023-07-13T12:47:15;8.70;;;4.47;;
46721;SDS011;32455;43.430;23.136;2023-07-13T12:50:03;10.38;;;4.40;;
46721;SDS011;32455;43.430;23.136;2023-07-13T12:52:54;8.18;;;4.53;;
46721;SDS011;32455;43.430;23.136;2023-07-13T12:55:49;7.60;;;4.13;;
46721;SDS011;32455;43.430;23.136;2023-07-13T12:58:45;7.40;;;3.80;;
46721;SDS011;32455;43.430;23.136;2023-07-13T13:01:35;7.75;;;4.15;;
46721;SDS011;32455;43.430;23.136;2023-07-13T13:04:23;10.48;;;4.32;;
46721;SDS011;32455;43.430;23.136;2023-07-13T13:07:09;7.47;;;4.63;;
46721;SDS011;32455;43.430;23.136;2023-07-13T13:09:55;7.80;;;4.53;;
46721;SDS011;32455;43.430;23.136;2023-07-13T13:12:40;8.48;;;4.07;;
46721;SDS011;32455;43.430;23.136;2023-07-13T13:15:29;9.60;;;4.55;;
46721;SDS011;32455;43.430;23.136;2023-07-13T13:18:18;11.13;;;4.88;;
46721;SDS011;32455;43.430;23.136;2023-07-13T13:21:05;10.00;;;4.40;;
46721;SDS011;32455;43.430;23.136;2023-07-13T13:23:52;9.75;;;4.20;;
46721;SDS011;32455;43.430;23.136;2023-07-13T13:26:38;12.35;;;4.93;;
46721;SDS011;32455;43.430;23.136;2023-07-13T13:29:25;7.78;;;4.03;;
46721;SDS011;32455;43.430;23.136;2023-07-13T13:32:11;11.68;;;4.47;;
46721;SDS011;32455;43.430;23.136;2023-07-13T13:34:58;10.10;;;4.40;;
46721;SDS011;32455;43.430;23.136;2023-07-13T13:37:43;6.47;;;4.45;;
46721;SDS011;32455;43.430;23.136;2023-07-13T13:40:29;6.53;;;4.43;;
46721;SDS011;32455;43.430;23.136;2023-07-13T13:43:22;8.75;;;4.60;;
46721;SDS011;32455;43.430;23.136;2023-07-13T13:46:21;8.40;;;4.88;;
46721;SDS011;32455;43.430;23.136;2023-07-13T13:49:16;6.72;;;4.60;;
46721;SDS011;32455;43.430;23.136;2023-07-13T13:52:03;6.32;;;4.10;;
46721;SDS011;32455;43.430;23.136;2023-07-13T13:54:49;9.43;;;4.82;;
46721;SDS011;32455;43.430;23.136;2023-07-13T13:57:35;9.20;;;4.70;;
46721;SDS011;32455;43.430;23.136;2023-07-13T14:00:22;9.60;;;4.55;;
46721;SDS011;32455;43.430;23.136;2023-07-13T14:03:08;7.70;;;4.10;;
46721;SDS011;32455;43.430;23.136;2023-07-13T14:06:07;10.75;;;4.50;;
46721;SDS011;32455;43.430;23.136;2023-07-13T14:08:54;10.35;;;4.05;;
46721;SDS011;32455;43.430;23.136;2023-07-13T14:11:40;10.38;;;4.15;;
46721;SDS011;32455;43.430;23.136;2023-07-13T14:14:27;8.88;;;4.53;;
46721;SDS011;32455;43.430;23.136;2023-07-13T14:17:22;6.75;;;4.43;;
46721;SDS011;32455;43.430;23.136;2023-07-13T14:20:11;8.52;;;4.40;;
46721;SDS011;32455;43.430;23.136;2023-07-13T14:22:58;8.10;;;4.38;;
46721;SDS011;32455;43.430;23.136;2023-07-13T14:25:45;8.18;;;4.15;;
46721;SDS011;32455;43.430;23.136;2023-07-13T14:28:31;12.50;;;4.43;;
46721;SDS011;32455;43.430;23.136;2023-07-13T14:31:17;7.15;;;4.55;;
46721;SDS011;32455;43.430;23.136;2023-07-13T14:34:04;10.00;;;4.13;;
46721;SDS011;32455;43.430;23.136;2023-07-13T14:36:49;6.20;;;4.18;;
46721;SDS011;32455;43.430;23.136;2023-07-13T14:39:35;6.22;;;4.10;;
46721;SDS011;32455;43.430;23.136;2023-07-13T14:42:20;7.85;;;4.13;;
46721;SDS011;32455;43.430;23.136;2023-07-13T14:45:11;8.32;;;4.65;;
46721;SDS011;32455;43.430;23.136;2023-07-13T14:47:58;11.65;;;4.40;;
46721;SDS011;32455;43.430;23.136;2023-07-13T14:50:43;10.57;;;4.50;;
46721;SDS011;32455;43.430;23.136;2023-07-13T14:53:29;5.88;;;4.07;;
46721;SDS011;32455;43.430;23.136;2023-07-13T14:56:14;9.15;;;4.13;;
46721;SDS011;32455;43.430;23.136;2023-07-13T14:59:02;10.60;;;4.90;;
46721;SDS011;32455;43.430;23.136;2023-07-13T15:01:47;8.23;;;4.88;;
46721;SDS011;32455;43.430;23.136;2023-07-13T15:04:34;5.55;;;4.00;;
46721;SDS011;32455;43.430;23.136;2023-07-13T15:07:20;8.45;;;4.45;;
46721;SDS011;32455;43.430;23.136;2023-07-13T15:16:03;6.97;;;4.90;;
46721;SDS011;32455;43.430;23.136;2023-07-13T15:18:55;7.63;;;4.63;;
46721;SDS011;32455;43.430;23.136;2023-07-13T15:21:41;10.00;;;4.30;;
46721;SDS011;32455;43.430;23.136;2023-07-13T15:24:27;12.68;;;4.88;;
46721;SDS011;32455;43.430;23.136;2023-07-13T15:27:13;6.85;;;4.50;;
46721;SDS011;32455;43.430;23.136;2023-07-13T15:29:58;8.82;;;4.60;;
46721;SDS011;32455;43.430;23.136;2023-07-13T15:32:43;10.20;;;4.80;;
46721;SDS011;32455;43.430;23.136;2023-07-13T15:35:29;6.00;;;4.57;;
46721;SDS011;32455;43.430;23.136;2023-07-13T15:38:16;7.43;;;4.15;;
46721;SDS011;32455;43.430;23.136;2023-07-13T15:41:09;6.60;;;4.45;;
46721;SDS011;32455;43.430;23.136;2023-07-13T15:44:04;9.10;;;4.60;;
46721;SDS011;32455;43.430;23.136;2023-07-13T15:47:08;6.68;;;4.20;;
46721;SDS011;32455;43.430;23.136;2023-07-13T15:49:58;7.05;;;4.57;;
46721;SDS011;32455;43.430;23.136;2023-07-13T15:52:44;13.05;;;5.18;;
46721;SDS011;32455;43.430;23.136;2023-07-13T15:55:33;7.90;;;4.53;;
46721;SDS011;32455;43.430;23.136;2023-07-13T15:58:18;8.98;;;4.53;;
46721;SDS011;32455;43.430;23.136;2023-07-13T16:01:05;6.43;;;4.55;;
46721;SDS011;32455;43.430;23.136;2023-07-13T16:03:50;8.07;;;4.47;;
46721;SDS011;32455;43.430;23.136;2023-07-13T16:06:39;7.00;;;4.32;;
46721;SDS011;32455;43.430;23.136;2023-07-13T16:09:26;10.80;;;4.47;;
46721;SDS011;32455;43.430;23.136;2023-07-13T16:12:14;8.57;;;4.50;;
46721;SDS011;32455;43.430;23.136;2023-07-13T16:14:59;12.55;;;5.32;;
46721;SDS011;32455;43.430;23.136;2023-07-13T16:17:45;10.77;;;4.88;;
46721;SDS011;32455;43.430;23.136;2023-07-13T16:20:31;12.60;;;5.05;;
46721;SDS011;32455;43.430;23.136;2023-07-13T16:23:17;12.13;;;5.00;;
46721;SDS011;32455;43.430;23.136;2023-07-13T16:26:03;7.82;;;4.57;;
46721;SDS011;32455;43.430;23.136;2023-07-13T16:28:56;6.90;;;4.68;;
46721;SDS011;32455;43.430;23.136;2023-07-13T16:31:57;8.07;;;5.03;;
46721;SDS011;32455;43.430;23.136;2023-07-13T16:34:47;9.80;;;5.25;;
46721;SDS011;32455;43.430;23.136;2023-07-13T16:37:34;6.28;;;4.55;;
46721;SDS011;32455;43.430;23.136;2023-07-13T16:40:22;7.15;;;4.90;;
46721;SDS011;32455;43.430;23.136;2023-07-13T16:43:12;7.55;;;4.60;;
46721;SDS011;32455;43.430;23.136;2023-07-13T16:46:00;18.38;;;5.30;;
46721;SDS011;32455;43.430;23.136;2023-07-13T16:48:48;11.80;;;5.00;;
46721;SDS011;32455;43.430;23.136;2023-07-13T16:51:34;12.80;;;4.60;;
46721;SDS011;32455;43.430;23.136;2023-07-13T16:54:19;7.28;;;4.90;;
46721;SDS011;32455;43.430;23.136;2023-07-13T16:57:15;8.43;;;4.93;;
46721;SDS011;32455;43.430;23.136;2023-07-13T17:05:57;5.93;;;4.63;;
46721;SDS011;32455;43.430;23.136;2023-07-13T17:08:45;5.88;;;4.95;;
46721;SDS011;32455;43.430;23.136;2023-07-13T17:11:30;14.27;;;5.30;;
46721;SDS011;32455;43.430;23.136;2023-07-13T17:14:17;9.32;;;5.22;;
46721;SDS011;32455;43.430;23.136;2023-07-13T17:17:05;11.25;;;5.10;;